Terminal Aerodrome Forecast
Issued by NWS Sterling, VA

Home | Current Version | Previous Version | Text Only | Print | Product List | Glossary On
Versions: 1 2 3 4 5 6 7 8 9 10 11 12 13 14 15 16 17 18 19 20 21 22 23 24 25
000
FTUS41 KLWX 220500
TAFDCA
TAF
KDCA 220540Z 2206/2306 00000KT P6SM SCT150
     FM222100 VRB03KT P6SM VCTS SCT030CB BKN080
     FM230100 VRB03KT P6SM SCT030 BKN080
     FM230300 08006KT P6SM OVC100=

USA.gov is the U.S. government's official web portal to all federal, state and local government web resources and services.